Rechercher aéroport 
image banner adimage banner adimage banner ad
image banner ad

58CA - Jay Stephen Hooper Memorial

Situé à Los Angeles, United States

ICAO - 58CA, IATA -

Données fournies par Airmate  

Information générale

Coordonnées: N34°3'16" W118°13'46"
Élévation : 353 feet MSL.
Variation magnétique : 14° East
Voir autres Aéroports à California

Données opérationnelles

Special qualification required
Heure actuelle UTC:
Heure actuelle locale:
METAR: KHHR 262253Z 25010KT 10SM FEW015 22/16 A2994 RMK AO2 SLP138 T02220161
Voir NOTAMs / SUP AIP / TFR affectant cet aéroport [VIEW]
Fréquences de communication: [VIEW]

Pistes:

Coordonnées de l'aéroport

Adresse: Los Angeles United States

Vue satellite de 58CA